Terminal Aerodrome Forecast
Issued by NWS Sterling, VA

Current Version | Previous Version | Graphics & Text | Print | Product List | Glossary On
Versions: 1 2 3 4 5 6 7 8 9 10 11 12 13 14 15 16 17 18 19 20
000
FTUS41 KLWX 250500
TAFIAD
TAF
KIAD 250532Z 2506/2612 00000KT 3SM BR SCT050
     FM251200 VRB03KT 5SM BR FEW050
     FM251300 03004KT P6SM FEW050
     FM251900 09006KT P6SM FEW050
     FM260100 00000KT P6SM FEW050=

USA.gov is the U.S. government's official web portal to all federal, state and local government web resources and services.